sensor_id;sensor_type;location;lat;lon;timestamp;pressure;altitude;pressure_sealevel;temperature;humidity
76358;BME280;65185;21.060;105.826;2024-01-07T00:00:31;102028.13;;;21.29;100.00
76358;BME280;65185;21.060;105.826;2024-01-07T00:02:58;102031.59;;;21.31;100.00
76358;BME280;65185;21.060;105.826;2024-01-07T00:05:25;102035.94;;;21.32;100.00
76358;BME280;65185;21.060;105.826;2024-01-07T00:07:52;102048.25;;;21.33;100.00
76358;BME280;65185;21.060;105.826;2024-01-07T00:10:19;102054.41;;;21.32;100.00
76358;BME280;65185;21.060;105.826;2024-01-07T00:12:46;102056.09;;;21.35;100.00
76358;BME280;65185;21.060;105.826;2024-01-07T00:15:14;102064.88;;;21.35;100.00
76358;BME280;65185;21.060;105.826;2024-01-07T00:17:41;102060.44;;;21.36;100.00
76358;BME280;65185;21.060;105.826;2024-01-07T00:20:08;102062.19;;;21.37;100.00
76358;BME280;65185;21.060;105.826;2024-01-07T00:22:36;102056.06;;;21.36;100.00
76358;BME280;65185;21.060;105.826;2024-01-07T00:25:03;102068.34;;;21.37;100.00
76358;BME280;65185;21.060;105.826;2024-01-07T00:27:30;102062.19;;;21.37;100.00
76358;BME280;65185;21.060;105.826;2024-01-07T00:29:58;102062.16;;;21.38;100.00
76358;BME280;65185;21.060;105.826;2024-01-07T00:32:25;102073.56;;;21.39;100.00
76358;BME280;65185;21.060;105.826;2024-01-07T00:34:52;102070.06;;;21.38;100.00
76358;BME280;65185;21.060;105.826;2024-01-07T00:37:19;102066.50;;;21.41;100.00
76358;BME280;65185;21.060;105.826;2024-01-07T00:39:46;102079.66;;;21.41;100.00
76358;BME280;65185;21.060;105.826;2024-01-07T00:42:14;102074.47;;;21.38;100.00
76358;BME280;65185;21.060;105.826;2024-01-07T00:44:40;102083.19;;;21.40;100.00
76358;BME280;65185;21.060;105.826;2024-01-07T00:47:07;102081.38;;;21.42;100.00
76358;BME280;65185;21.060;105.826;2024-01-07T00:49:34;102084.91;;;21.42;100.00
76358;BME280;65185;21.060;105.826;2024-01-07T00:52:01;102091.00;;;21.44;100.00
76358;BME280;65185;21.060;105.826;2024-01-07T00:54:28;102096.22;;;21.46;100.00
76358;BME280;65185;21.060;105.826;2024-01-07T00:56:55;102096.06;;;21.50;100.00
76358;BME280;65185;21.060;105.826;2024-01-07T00:59:22;102103.06;;;21.53;100.00
76358;BME280;65185;21.060;105.826;2024-01-07T01:01:49;102094.16;;;21.57;100.00
76358;BME280;65185;21.060;105.826;2024-01-07T01:04:16;102095.81;;;21.61;100.00
76358;BME280;65185;21.060;105.826;2024-01-07T01:06:43;102096.63;;;21.63;100.00
76358;BME280;65185;21.060;105.826;2024-01-07T01:09:10;102106.97;;;21.69;100.00
76358;BME280;65185;21.060;105.826;2024-01-07T01:11:37;102105.16;;;21.71;100.00
76358;BME280;65185;21.060;105.826;2024-01-07T01:14:04;102101.59;;;21.73;100.00
76358;BME280;65185;21.060;105.826;2024-01-07T01:16:31;102101.53;;;21.75;100.00
76358;BME280;65185;21.060;105.826;2024-01-07T01:18:58;102103.22;;;21.79;100.00
76358;BME280;65185;21.060;105.826;2024-01-07T01:21:25;102103.00;;;21.87;100.00
76358;BME280;65185;21.060;105.826;2024-01-07T01:23:52;102102.78;;;21.93;100.00
76358;BME280;65185;21.060;105.826;2024-01-07T01:26:19;102093.81;;;22.00;100.00
76358;BME280;65185;21.060;105.826;2024-01-07T01:28:46;102098.09;;;22.02;100.00
76358;BME280;65185;21.060;105.826;2024-01-07T01:31:14;102099.75;;;22.06;100.00
76358;BME280;65185;21.060;105.826;2024-01-07T01:33:41;102084.63;;;22.11;100.00
76358;BME280;65185;21.060;105.826;2024-01-07T01:36:09;102086.31;;;22.14;100.00
76358;BME280;65185;21.060;105.826;2024-01-07T01:38:36;102094.97;;;22.19;100.00
76358;BME280;65185;21.060;105.826;2024-01-07T01:41:03;102099.25;;;22.23;100.00
76358;BME280;65185;21.060;105.826;2024-01-07T01:43:30;102092.00;;;22.29;100.00
76358;BME280;65185;21.060;105.826;2024-01-07T01:45:58;102106.94;;;22.30;100.00
76358;BME280;65185;21.060;105.826;2024-01-07T01:48:26;102110.34;;;22.34;100.00
76358;BME280;65185;21.060;105.826;2024-01-07T01:50:55;102114.72;;;22.35;100.00
76358;BME280;65185;21.060;105.826;2024-01-07T01:53:25;102116.31;;;22.40;100.00
76358;BME280;65185;21.060;105.826;2024-01-07T01:55:53;102121.38;;;22.46;100.00
76358;BME280;65185;21.060;105.826;2024-01-07T01:58:22;102126.59;;;22.48;100.00
76358;BME280;65185;21.060;105.826;2024-01-07T02:00:50;102136.09;;;22.55;100.00
76358;BME280;65185;21.060;105.826;2024-01-07T02:03:18;102144.75;;;22.60;100.00
76358;BME280;65185;21.060;105.826;2024-01-07T02:05:45;102145.41;;;22.66;100.00
76358;BME280;65185;21.060;105.826;2024-01-07T02:08:14;102147.22;;;22.66;100.00
76358;BME280;65185;21.060;105.826;2024-01-07T02:10:41;102133.22;;;22.62;100.00
76358;BME280;65185;21.060;105.826;2024-01-07T02:13:08;102127.97;;;22.61;100.00
76358;BME280;65185;21.060;105.826;2024-01-07T02:15:35;102139.31;;;22.64;100.00
76358;BME280;65185;21.060;105.826;2024-01-07T02:18:02;102129.47;;;22.69;99.95
76358;BME280;65185;21.060;105.826;2024-01-07T02:20:29;102128.59;;;22.69;98.63
76358;BME280;65185;21.060;105.826;2024-01-07T02:22:57;102126.66;;;22.74;98.50
76358;BME280;65185;21.060;105.826;2024-01-07T02:25:25;102131.97;;;22.74;97.24
76358;BME280;65185;21.060;105.826;2024-01-07T02:27:51;102128.50;;;22.72;95.38
76358;BME280;65185;21.060;105.826;2024-01-07T02:30:18;102122.38;;;22.71;95.88
76358;BME280;65185;21.060;105.826;2024-01-07T02:32:44;102127.72;;;22.68;95.22
76358;BME280;65185;21.060;105.826;2024-01-07T02:35:11;102130.38;;;22.68;94.90
76358;BME280;65185;21.060;105.826;2024-01-07T02:37:38;102120.44;;;22.76;94.46
76358;BME280;65185;21.060;105.826;2024-01-07T02:40:05;102128.31;;;22.78;95.03
76358;BME280;65185;21.060;105.826;2024-01-07T02:42:32;102130.81;;;22.83;95.19
76358;BME280;65185;21.060;105.826;2024-01-07T02:44:59;102118.38;;;22.85;94.33
76358;BME280;65185;21.060;105.826;2024-01-07T02:47:25;102116.47;;;22.90;95.01
76358;BME280;65185;21.060;105.826;2024-01-07T02:49:52;102119.88;;;22.93;94.66
76358;BME280;65185;21.060;105.826;2024-01-07T02:52:18;102111.69;;;23.01;94.38
76358;BME280;65185;21.060;105.826;2024-01-07T02:54:45;102112.06;;;23.15;94.00
76358;BME280;65185;21.060;105.826;2024-01-07T02:57:11;102099.22;;;23.29;93.46
76358;BME280;65185;21.060;105.826;2024-01-07T02:59:38;102104.00;;;23.44;93.32
76358;BME280;65185;21.060;105.826;2024-01-07T03:02:04;102103.38;;;23.60;91.74
76358;BME280;65185;21.060;105.826;2024-01-07T03:04:31;102102.34;;;23.88;91.69
76358;BME280;65185;21.060;105.826;2024-01-07T03:06:58;102097.97;;;24.11;90.66
76358;BME280;65185;21.060;105.826;2024-01-07T03:09:25;102091.63;;;24.37;87.74
76358;BME280;65185;21.060;105.826;2024-01-07T03:11:51;102086.81;;;24.68;85.84
76358;BME280;65185;21.060;105.826;2024-01-07T03:14:20;102085.03;;;24.90;83.53
76358;BME280;65185;21.060;105.826;2024-01-07T03:16:47;102084.22;;;25.08;82.21
76358;BME280;65185;21.060;105.826;2024-01-07T03:19:14;102093.16;;;25.06;82.28
76358;BME280;65185;21.060;105.826;2024-01-07T03:21:41;102090.25;;;25.12;82.96
76358;BME280;65185;21.060;105.826;2024-01-07T03:24:07;102075.94;;;25.36;81.53
76358;BME280;65185;21.060;105.826;2024-01-07T03:26:34;102071.81;;;25.29;80.75
76358;BME280;65185;21.060;105.826;2024-01-07T03:29:01;102073.16;;;24.99;81.89
76358;BME280;65185;21.060;105.826;2024-01-07T03:31:28;102074.34;;;25.12;79.92
76358;BME280;65185;21.060;105.826;2024-01-07T03:33:55;102061.09;;;24.70;81.79
76358;BME280;65185;21.060;105.826;2024-01-07T03:36:21;102058.53;;;24.25;83.41
76358;BME280;65185;21.060;105.826;2024-01-07T03:38:48;102053.47;;;24.19;83.29
76358;BME280;65185;21.060;105.826;2024-01-07T03:41:18;102053.13;;;24.07;85.11
76358;BME280;65185;21.060;105.826;2024-01-07T03:43:49;102055.06;;;23.78;87.23
76358;BME280;65185;21.060;105.826;2024-01-07T03:46:16;102040.34;;;23.71;85.77
76358;BME280;65185;21.060;105.826;2024-01-07T03:48:43;102029.28;;;23.60;86.16
76358;BME280;65185;21.060;105.826;2024-01-07T03:51:10;102039.41;;;23.49;86.47
76358;BME280;65185;21.060;105.826;2024-01-07T03:53:37;102031.06;;;23.37;87.67
76358;BME280;65185;21.060;105.826;2024-01-07T03:56:04;102023.59;;;23.48;87.76
76358;BME280;65185;21.060;105.826;2024-01-07T03:58:31;102015.72;;;23.46;87.76
76358;BME280;65185;21.060;105.826;2024-01-07T04:00:58;102010.78;;;23.37;87.40
76358;BME280;65185;21.060;105.826;2024-01-07T04:03:24;102007.13;;;23.41;87.28
76358;BME280;65185;21.060;105.826;2024-01-07T04:05:51;101994.72;;;23.42;87.99
76358;BME280;65185;21.060;105.826;2024-01-07T04:08:21;101990.03;;;23.50;88.02
76358;BME280;65185;21.060;105.826;2024-01-07T04:10:48;101990.44;;;23.39;89.20
76358;BME280;65185;21.060;105.826;2024-01-07T04:13:15;101992.81;;;23.22;89.67
76358;BME280;65185;21.060;105.826;2024-01-07T04:15:41;101982.50;;;23.15;90.18
76358;BME280;65185;21.060;105.826;2024-01-07T04:18:08;101969.91;;;23.21;89.63
76358;BME280;65185;21.060;105.826;2024-01-07T04:20:34;101959.28;;;23.23;90.67
76358;BME280;65185;21.060;105.826;2024-01-07T04:23:01;101964.59;;;23.23;89.69
76358;BME280;65185;21.060;105.826;2024-01-07T04:25:28;101954.84;;;23.23;92.55
76358;BME280;65185;21.060;105.826;2024-01-07T04:27:54;101956.34;;;23.32;92.01
76358;BME280;65185;21.060;105.826;2024-01-07T04:30:21;101941.53;;;23.26;91.33
76358;BME280;65185;21.060;105.826;2024-01-07T04:32:47;101930.84;;;23.29;89.34
76358;BME280;65185;21.060;105.826;2024-01-07T04:35:14;101925.44;;;23.32;87.66
76358;BME280;65185;21.060;105.826;2024-01-07T04:37:41;101921.94;;;23.32;88.24
76358;BME280;65185;21.060;105.826;2024-01-07T04:40:08;101913.34;;;23.25;88.37
76358;BME280;65185;21.060;105.826;2024-01-07T04:42:35;101914.13;;;23.27;89.65
76358;BME280;65185;21.060;105.826;2024-01-07T04:45:01;101907.94;;;23.28;90.13
76358;BME280;65185;21.060;105.826;2024-01-07T04:47:30;101904.44;;;23.28;89.97
76358;BME280;65185;21.060;105.826;2024-01-07T04:49:57;101898.56;;;23.20;90.72
76358;BME280;65185;21.060;105.826;2024-01-07T04:52:24;101888.69;;;23.25;90.07
76358;BME280;65185;21.060;105.826;2024-01-07T04:54:54;101873.72;;;23.24;89.58
76358;BME280;65185;21.060;105.826;2024-01-07T04:57:22;101865.06;;;23.20;90.67
76358;BME280;65185;21.060;105.826;2024-01-07T04:59:50;101848.63;;;23.12;90.50
76358;BME280;65185;21.060;105.826;2024-01-07T05:02:18;101848.69;;;23.11;90.79
76358;BME280;65185;21.060;105.826;2024-01-07T05:04:44;101845.97;;;23.12;91.07
76358;BME280;65185;21.060;105.826;2024-01-07T05:07:11;101837.19;;;23.12;91.75
76358;BME280;65185;21.060;105.826;2024-01-07T05:09:38;101833.56;;;23.14;91.77
76358;BME280;65185;21.060;105.826;2024-01-07T05:12:05;101827.28;;;23.17;92.69
76358;BME280;65185;21.060;105.826;2024-01-07T05:14:32;101819.22;;;23.20;92.99
76358;BME280;65185;21.060;105.826;2024-01-07T05:16:58;101816.53;;;23.21;92.87
76358;BME280;65185;21.060;105.826;2024-01-07T05:19:25;101816.34;;;23.26;92.18
76358;BME280;65185;21.060;105.826;2024-01-07T05:21:54;101813.66;;;23.27;90.97
76358;BME280;65185;21.060;105.826;2024-01-07T05:24:21;101811.84;;;23.29;90.91
76358;BME280;65185;21.060;105.826;2024-01-07T05:26:47;101806.31;;;23.35;89.76
76358;BME280;65185;21.060;105.826;2024-01-07T05:29:14;101798.38;;;23.35;90.39
76358;BME280;65185;21.060;105.826;2024-01-07T05:31:41;101796.63;;;23.34;90.18
76358;BME280;65185;21.060;105.826;2024-01-07T05:34:07;101787.88;;;23.34;89.11
76358;BME280;65185;21.060;105.826;2024-01-07T05:36:34;101779.97;;;23.54;88.64
76358;BME280;65185;21.060;105.826;2024-01-07T05:39:01;101780.63;;;23.59;88.39
76358;BME280;65185;21.060;105.826;2024-01-07T05:41:28;101778.00;;;23.59;87.64
76358;BME280;65185;21.060;105.826;2024-01-07T05:43:54;101774.41;;;23.60;90.20
76358;BME280;65185;21.060;105.826;2024-01-07T05:46:21;101770.91;;;23.59;90.06
76358;BME280;65185;21.060;105.826;2024-01-07T05:48:48;101762.09;;;23.59;90.33
76358;BME280;65185;21.060;105.826;2024-01-07T05:51:16;101762.28;;;23.54;86.93
76358;BME280;65185;21.060;105.826;2024-01-07T05:53:43;101754.56;;;23.50;87.39
76358;BME280;65185;21.060;105.826;2024-01-07T05:56:10;101749.19;;;23.51;88.11
76358;BME280;65185;21.060;105.826;2024-01-07T05:58:40;101741.25;;;23.51;90.74
76358;BME280;65185;21.060;105.826;2024-01-07T06:01:07;101736.19;;;23.47;90.20
76358;BME280;65185;21.060;105.826;2024-01-07T06:03:34;101732.97;;;23.39;90.96
76358;BME280;65185;21.060;105.826;2024-01-07T06:06:01;101736.75;;;23.33;91.38
76358;BME280;65185;21.060;105.826;2024-01-07T06:08:28;101743.00;;;23.31;92.81
76358;BME280;65185;21.060;105.826;2024-01-07T06:10:55;101735.19;;;23.28;93.14
76358;BME280;65185;21.060;105.826;2024-01-07T06:13:21;101728.22;;;23.25;92.63
76358;BME280;65185;21.060;105.826;2024-01-07T06:15:48;101726.44;;;23.26;92.13
76358;BME280;65185;21.060;105.826;2024-01-07T06:18:15;101726.56;;;23.23;91.41
76358;BME280;65185;21.060;105.826;2024-01-07T06:20:41;101723.00;;;23.24;90.88
76358;BME280;65185;21.060;105.826;2024-01-07T06:23:08;101715.94;;;23.24;92.51
76358;BME280;65185;21.060;105.826;2024-01-07T06:25:34;101712.22;;;23.30;91.73
76358;BME280;65185;21.060;105.826;2024-01-07T06:28:01;101711.44;;;23.26;92.70
76358;BME280;65185;21.060;105.826;2024-01-07T06:30:27;101706.22;;;23.25;93.59
76358;BME280;65185;21.060;105.826;2024-01-07T06:32:54;101701.09;;;23.20;94.02
76358;BME280;65185;21.060;105.826;2024-01-07T06:35:21;101697.59;;;23.20;93.74
76358;BME280;65185;21.060;105.826;2024-01-07T06:37:49;101692.31;;;23.20;93.54
76358;BME280;65185;21.060;105.826;2024-01-07T06:40:15;101702.88;;;23.20;93.44
76358;BME280;65185;21.060;105.826;2024-01-07T06:42:42;101687.75;;;23.23;92.34
76358;BME280;65185;21.060;105.826;2024-01-07T06:45:10;101690.81;;;23.36;90.79
76358;BME280;65185;21.060;105.826;2024-01-07T06:47:37;101686.69;;;23.49;90.48
76358;BME280;65185;21.060;105.826;2024-01-07T06:50:04;101680.09;;;23.59;89.45
76358;BME280;65185;21.060;105.826;2024-01-07T06:52:30;101665.00;;;23.61;89.15
76358;BME280;65185;21.060;105.826;2024-01-07T06:54:57;101661.50;;;23.60;89.47
76358;BME280;65185;21.060;105.826;2024-01-07T06:57:23;101655.72;;;23.71;90.61
76358;BME280;65185;21.060;105.826;2024-01-07T06:59:50;101655.53;;;23.75;89.82
76358;BME280;65185;21.060;105.826;2024-01-07T07:02:17;101647.28;;;23.63;89.21
76358;BME280;65185;21.060;105.826;2024-01-07T07:04:44;101635.91;;;23.61;90.30
76358;BME280;65185;21.060;105.826;2024-01-07T07:07:10;101640.41;;;23.59;90.05
76358;BME280;65185;21.060;105.826;2024-01-07T07:09:37;101646.50;;;23.61;90.82
76358;BME280;65185;21.060;105.826;2024-01-07T07:12:04;101650.03;;;23.60;90.77
76358;BME280;65185;21.060;105.826;2024-01-07T07:14:34;101652.66;;;23.61;89.73
76358;BME280;65185;21.060;105.826;2024-01-07T07:17:01;101639.41;;;23.61;90.52
76358;BME280;65185;21.060;105.826;2024-01-07T07:19:27;101641.19;;;23.61;91.61
76358;BME280;65185;21.060;105.826;2024-01-07T07:21:54;101634.38;;;23.55;91.10
76358;BME280;65185;21.060;105.826;2024-01-07T07:24:20;101629.88;;;23.57;88.81
76358;BME280;65185;21.060;105.826;2024-01-07T07:26:48;101621.16;;;23.55;89.09
76358;BME280;65185;21.060;105.826;2024-01-07T07:29:14;101622.13;;;23.53;89.40
76358;BME280;65185;21.060;105.826;2024-01-07T07:31:41;101621.31;;;23.52;89.46
76358;BME280;65185;21.060;105.826;2024-01-07T07:34:09;101608.00;;;23.54;89.17
76358;BME280;65185;21.060;105.826;2024-01-07T07:36:36;101618.59;;;23.54;89.96
76358;BME280;65185;21.060;105.826;2024-01-07T07:39:03;101619.63;;;23.50;89.82
76358;BME280;65185;21.060;105.826;2024-01-07T07:41:29;101614.50;;;23.47;90.04
76358;BME280;65185;21.060;105.826;2024-01-07T07:43:56;101615.41;;;23.46;89.84
76358;BME280;65185;21.060;105.826;2024-01-07T07:46:23;101605.81;;;23.43;90.42
76358;BME280;65185;21.060;105.826;2024-01-07T07:48:49;101608.41;;;23.45;89.69
76358;BME280;65185;21.060;105.826;2024-01-07T07:51:16;101611.88;;;23.45;90.30
76358;BME280;65185;21.060;105.826;2024-01-07T07:53:42;101606.75;;;23.42;90.64
76358;BME280;65185;21.060;105.826;2024-01-07T07:56:09;101602.44;;;23.40;90.46
76358;BME280;65185;21.060;105.826;2024-01-07T07:58:36;101606.03;;;23.39;90.08
76358;BME280;65185;21.060;105.826;2024-01-07T08:01:03;101606.81;;;23.41;90.58
76358;BME280;65185;21.060;105.826;2024-01-07T08:03:30;101606.88;;;23.39;90.59
76358;BME280;65185;21.060;105.826;2024-01-07T08:05:57;101608.19;;;23.49;91.24
76358;BME280;65185;21.060;105.826;2024-01-07T08:08:24;101599.13;;;23.55;91.99
76358;BME280;65185;21.060;105.826;2024-01-07T08:10:51;101593.34;;;23.65;89.37
76358;BME280;65185;21.060;105.826;2024-01-07T08:13:17;101598.25;;;23.74;88.02
76358;BME280;65185;21.060;105.826;2024-01-07T08:15:44;101598.09;;;23.77;87.41
76358;BME280;65185;21.060;105.826;2024-01-07T08:18:11;101594.84;;;23.71;87.58
76358;BME280;65185;21.060;105.826;2024-01-07T08:20:37;101601.00;;;23.71;88.02
76358;BME280;65185;21.060;105.826;2024-01-07T08:23:04;101609.50;;;23.59;88.29
76358;BME280;65185;21.060;105.826;2024-01-07T08:25:31;101603.09;;;23.65;92.38
76358;BME280;65185;21.060;105.826;2024-01-07T08:27:58;101607.59;;;23.63;91.90
76358;BME280;65185;21.060;105.826;2024-01-07T08:30:25;101601.97;;;23.70;88.55
76358;BME280;65185;21.060;105.826;2024-01-07T08:32:51;101612.16;;;23.59;89.09
76358;BME280;65185;21.060;105.826;2024-01-07T08:35:18;101609.84;;;23.52;90.54
76358;BME280;65185;21.060;105.826;2024-01-07T08:37:45;101612.97;;;23.61;90.60
76358;BME280;65185;21.060;105.826;2024-01-07T08:40:12;101605.06;;;23.60;88.00
76358;BME280;65185;21.060;105.826;2024-01-07T08:42:39;101604.22;;;23.59;87.99
76358;BME280;65185;21.060;105.826;2024-01-07T08:45:06;101598.84;;;23.61;87.76
76358;BME280;65185;21.060;105.826;2024-01-07T08:47:33;101595.41;;;23.59;88.37
76358;BME280;65185;21.060;105.826;2024-01-07T08:50:01;101601.91;;;23.52;88.32
76358;BME280;65185;21.060;105.826;2024-01-07T08:52:29;101599.38;;;23.49;87.92
76358;BME280;65185;21.060;105.826;2024-01-07T08:55:00;101600.97;;;23.53;87.25
76358;BME280;65185;21.060;105.826;2024-01-07T08:57:26;101606.94;;;23.58;88.54
76358;BME280;65185;21.060;105.826;2024-01-07T08:59:53;101596.78;;;23.67;87.47
76358;BME280;65185;21.060;105.826;2024-01-07T09:02:19;101604.78;;;23.66;88.09
76358;BME280;65185;21.060;105.826;2024-01-07T09:04:46;101606.88;;;23.59;88.01
76358;BME280;65185;21.060;105.826;2024-01-07T09:07:12;101609.97;;;23.49;88.95
76358;BME280;65185;21.060;105.826;2024-01-07T09:09:42;101602.31;;;23.43;89.90
76358;BME280;65185;21.060;105.826;2024-01-07T09:12:09;101610.38;;;23.40;90.32
76358;BME280;65185;21.060;105.826;2024-01-07T09:14:37;101605.63;;;23.48;89.69
76358;BME280;65185;21.060;105.826;2024-01-07T09:17:04;101601.69;;;23.56;87.74
76358;BME280;65185;21.060;105.826;2024-01-07T09:19:31;101596.34;;;23.58;87.75
76358;BME280;65185;21.060;105.826;2024-01-07T09:21:57;101602.72;;;23.54;87.15
76358;BME280;65185;21.060;105.826;2024-01-07T09:24:24;101597.88;;;23.43;87.54
76358;BME280;65185;21.060;105.826;2024-01-07T09:26:50;101605.06;;;23.40;87.79
76358;BME280;65185;21.060;105.826;2024-01-07T09:29:17;101607.88;;;23.37;88.47
76358;BME280;65185;21.060;105.826;2024-01-07T09:31:44;101610.50;;;23.37;89.09
76358;BME280;65185;21.060;105.826;2024-01-07T09:34:11;101614.13;;;23.34;89.61
76358;BME280;65185;21.060;105.826;2024-01-07T09:36:37;101615.97;;;23.32;88.91
76358;BME280;65185;21.060;105.826;2024-01-07T09:39:04;101612.50;;;23.32;89.58
76358;BME280;65185;21.060;105.826;2024-01-07T09:41:35;101615.53;;;23.43;88.63
76358;BME280;65185;21.060;105.826;2024-01-07T09:44:02;101606.34;;;23.51;89.15
76358;BME280;65185;21.060;105.826;2024-01-07T09:46:31;101611.44;;;23.56;87.65
76358;BME280;65185;21.060;105.826;2024-01-07T09:48:58;101614.28;;;23.51;88.38
76358;BME280;65185;21.060;105.826;2024-01-07T09:51:26;101616.34;;;23.45;88.15
76358;BME280;65185;21.060;105.826;2024-01-07T09:54:02;101619.09;;;23.42;88.31
76358;BME280;65185;21.060;105.826;2024-01-07T09:56:38;101616.75;;;23.36;88.58
76358;BME280;65185;21.060;105.826;2024-01-07T09:59:07;101619.50;;;23.33;88.22
76358;BME280;65185;21.060;105.826;2024-01-07T10:01:34;101618.63;;;23.32;88.63
76358;BME280;65185;21.060;105.826;2024-01-07T10:04:01;101624.72;;;23.34;89.66
76358;BME280;65185;21.060;105.826;2024-01-07T10:06:28;101622.28;;;23.30;89.54
76358;BME280;65185;21.060;105.826;2024-01-07T10:08:54;101619.97;;;23.42;88.50
76358;BME280;65185;21.060;105.826;2024-01-07T10:11:21;101619.16;;;23.40;88.48
76358;BME280;65185;21.060;105.826;2024-01-07T10:13:48;101623.00;;;23.33;89.12
76358;BME280;65185;21.060;105.826;2024-01-07T10:16:17;101625.72;;;23.32;90.70
76358;BME280;65185;21.060;105.826;2024-01-07T10:18:43;101617.16;;;23.25;90.58
76358;BME280;65185;21.060;105.826;2024-01-07T10:21:10;101612.34;;;23.35;90.49
76358;BME280;65185;21.060;105.826;2024-01-07T10:23:36;101604.44;;;23.35;90.13
76358;BME280;65185;21.060;105.826;2024-01-07T10:26:03;101617.06;;;23.27;90.65
76358;BME280;65185;21.060;105.826;2024-01-07T10:28:31;101606.72;;;23.22;90.71
76358;BME280;65185;21.060;105.826;2024-01-07T10:30:59;101604.22;;;23.19;91.02
76358;BME280;65185;21.060;105.826;2024-01-07T10:33:30;101587.47;;;23.19;92.15
76358;BME280;65185;21.060;105.826;2024-01-07T10:36:02;101583.81;;;23.21;92.09
76358;BME280;65185;21.060;105.826;2024-01-07T10:38:34;101582.19;;;23.19;92.78
76358;BME280;65185;21.060;105.826;2024-01-07T10:41:01;101584.28;;;23.11;93.13
76358;BME280;65185;21.060;105.826;2024-01-07T10:43:31;101585.94;;;23.13;94.51
76358;BME280;65185;21.060;105.826;2024-01-07T10:46:00;101588.47;;;23.16;94.47
76358;BME280;65185;21.060;105.826;2024-01-07T10:48:31;101602.88;;;23.09;95.36
76358;BME280;65185;21.060;105.826;2024-01-07T10:51:00;101603.75;;;23.10;95.54
76358;BME280;65185;21.060;105.826;2024-01-07T10:53:34;101610.78;;;23.09;96.19
76358;BME280;65185;21.060;105.826;2024-01-07T10:56:04;101594.28;;;23.04;95.98
76358;BME280;65185;21.060;105.826;2024-01-07T10:58:36;101605.16;;;22.97;96.52
76358;BME280;65185;21.060;105.826;2024-01-07T11:01:03;101604.22;;;22.98;97.27
76358;BME280;65185;21.060;105.826;2024-01-07T11:06:09;101611.50;;;22.93;97.99
76358;BME280;65185;21.060;105.826;2024-01-07T11:08:55;101616.13;;;22.88;98.55
76358;BME280;65185;21.060;105.826;2024-01-07T11:11:36;101619.63;;;22.88;97.94
76358;BME280;65185;21.060;105.826;2024-01-07T11:14:04;101621.78;;;22.78;98.78
76358;BME280;65185;21.060;105.826;2024-01-07T11:19:06;101629.00;;;22.75;99.79
76358;BME280;65185;21.060;105.826;2024-01-07T11:21:32;101626.06;;;22.81;99.83
76358;BME280;65185;21.060;105.826;2024-01-07T11:23:59;101622.97;;;22.71;100.00
76358;BME280;65185;21.060;105.826;2024-01-07T11:26:28;101631.50;;;22.78;100.00
76358;BME280;65185;21.060;105.826;2024-01-07T11:28:57;101635.91;;;22.77;100.00
76358;BME280;65185;21.060;105.826;2024-01-07T11:34:06;101645.75;;;22.74;100.00
76358;BME280;65185;21.060;105.826;2024-01-07T11:36:36;101649.25;;;22.74;100.00
76358;BME280;65185;21.060;105.826;2024-01-07T11:39:04;101651.25;;;22.68;100.00
76358;BME280;65185;21.060;105.826;2024-01-07T11:41:35;101650.50;;;22.66;100.00
76358;BME280;65185;21.060;105.826;2024-01-07T11:44:03;101650.00;;;22.56;100.00
76358;BME280;65185;21.060;105.826;2024-01-07T11:46:31;101657.91;;;22.56;100.00
76358;BME280;65185;21.060;105.826;2024-01-07T11:48:58;101657.94;;;22.55;100.00
76358;BME280;65185;21.060;105.826;2024-01-07T11:51:29;101670.13;;;22.59;100.00
76358;BME280;65185;21.060;105.826;2024-01-07T11:53:57;101670.09;;;22.60;100.00
76358;BME280;65185;21.060;105.826;2024-01-07T11:56:27;101673.78;;;22.55;100.00
76358;BME280;65185;21.060;105.826;2024-01-07T11:58:54;101674.75;;;22.52;100.00
76358;BME280;65185;21.060;105.826;2024-01-07T12:01:23;101677.41;;;22.52;100.00
76358;BME280;65185;21.060;105.826;2024-01-07T12:03:52;101687.16;;;22.50;100.00
76358;BME280;65185;21.060;105.826;2024-01-07T12:06:19;101696.06;;;22.48;100.00
76358;BME280;65185;21.060;105.826;2024-01-07T12:08:46;101692.66;;;22.46;100.00
76358;BME280;65185;21.060;105.826;2024-01-07T12:11:14;101697.84;;;22.47;100.00
76358;BME280;65185;21.060;105.826;2024-01-07T12:13:42;101702.94;;;22.52;100.00
76358;BME280;65185;21.060;105.826;2024-01-07T12:16:09;101696.59;;;22.57;100.00
76358;BME280;65185;21.060;105.826;2024-01-07T12:18:37;101701.00;;;22.57;100.00
76358;BME280;65185;21.060;105.826;2024-01-07T12:21:04;101705.47;;;22.56;100.00
76358;BME280;65185;21.060;105.826;2024-01-07T12:23:35;101711.75;;;22.52;100.00
76358;BME280;65185;21.060;105.826;2024-01-07T12:26:11;101717.03;;;22.52;100.00
76358;BME280;65185;21.060;105.826;2024-01-07T12:28:38;101723.13;;;22.54;100.00
76358;BME280;65185;21.060;105.826;2024-01-07T12:31:05;101730.06;;;22.34;100.00
76358;BME280;65185;21.060;105.826;2024-01-07T12:33:32;101720.38;;;22.34;100.00
76358;BME280;65185;21.060;105.826;2024-01-07T12:35:59;101721.19;;;22.36;100.00